createdAt,value
2022-10-28T00:01:06.719Z,98788.00
2022-10-28T00:03:38.384Z,98781.00
2022-10-28T00:06:08.913Z,98785.00
2022-10-28T00:08:37.404Z,98792.00
2022-10-28T00:11:11.389Z,98783.00
2022-10-28T00:13:41.693Z,98791.00
2022-10-28T00:16:13.576Z,98791.00
2022-10-28T00:18:42.348Z,98787.00
2022-10-28T00:21:13.892Z,98782.00
2022-10-28T00:23:42.546Z,98788.00
2022-10-28T00:26:15.299Z,98796.00
2022-10-28T00:28:46.530Z,98798.00
2022-10-28T00:31:17.415Z,98794.00
2022-10-28T00:33:45.213Z,98800.00
2022-10-28T00:36:17.240Z,98795.00
2022-10-28T00:38:47.846Z,98793.00
2022-10-28T00:41:18.890Z,98796.00
2022-10-28T00:43:49.698Z,98788.00
2022-10-28T00:46:36.024Z,98795.00
2022-10-28T00:49:10.663Z,98797.00
2022-10-28T00:51:38.773Z,98798.00
2022-10-28T00:54:08.092Z,98801.00
2022-10-28T00:56:44.735Z,98792.00
2022-10-28T00:59:20.678Z,98788.00
2022-10-28T01:01:49.195Z,98792.00
2022-10-28T01:04:18.066Z,98796.00
2022-10-28T01:06:47.614Z,98791.00
2022-10-28T01:09:15.877Z,98800.00
2022-10-28T01:12:01.165Z,98792.00
2022-10-28T01:14:50.268Z,98788.00
2022-10-28T01:17:35.157Z,98786.00
2022-10-28T01:20:54.189Z,98796.00
2022-10-28T01:23:33.466Z,98792.00
2022-10-28T01:26:35.843Z,98785.00
2022-10-28T01:29:45.295Z,98792.00
2022-10-28T01:32:30.160Z,98786.00
2022-10-28T01:35:13.410Z,98786.00
2022-10-28T01:37:55.047Z,98784.00
2022-10-28T01:40:34.773Z,98787.00
2022-10-28T01:43:11.831Z,98800.00
2022-10-28T01:45:52.412Z,98791.00
2022-10-28T01:48:28.099Z,98787.00
2022-10-28T01:51:03.185Z,98785.00
2022-10-28T01:53:38.359Z,98780.00
2022-10-28T01:56:14.806Z,98772.00
2022-10-28T01:58:45.044Z,98762.00
2022-10-28T02:01:15.062Z,98756.00
2022-10-28T02:03:46.618Z,98750.00
2022-10-28T02:06:21.427Z,98751.00
2022-10-28T02:09:10.891Z,98753.00
2022-10-28T02:12:13.726Z,98759.00
2022-10-28T02:15:13.357Z,98757.00
2022-10-28T02:17:56.457Z,98748.00
2022-10-28T02:20:38.072Z,98748.00
2022-10-28T02:23:21.960Z,98748.00
2022-10-28T02:25:58.388Z,98743.00
2022-10-28T02:28:42.069Z,98740.00
2022-10-28T02:31:22.737Z,98742.00
2022-10-28T02:33:56.719Z,98752.00
2022-10-28T02:36:29.448Z,98750.00
2022-10-28T02:38:59.543Z,98745.00
2022-10-28T02:41:36.261Z,98746.00
2022-10-28T02:44:09.987Z,98748.00
2022-10-28T02:46:41.672Z,98750.00
2022-10-28T02:49:13.850Z,98747.00
2022-10-28T02:51:47.431Z,98749.00
2022-10-28T02:54:19.191Z,98749.00
2022-10-28T02:56:54.698Z,98751.00
2022-10-28T02:59:26.354Z,98743.00
2022-10-28T03:01:54.197Z,98749.00
2022-10-28T03:04:22.093Z,98750.00
2022-10-28T03:06:51.199Z,98752.00
2022-10-28T03:09:18.972Z,98756.00
2022-10-28T03:11:46.747Z,98754.00
2022-10-28T03:14:15.443Z,98744.00
2022-10-28T03:16:43.531Z,98752.00
2022-10-28T03:19:11.397Z,98755.00
2022-10-28T03:21:39.130Z,98748.00
2022-10-28T03:24:08.612Z,98743.00
2022-10-28T03:26:36.346Z,98742.00
2022-10-28T03:29:04.508Z,98745.00
2022-10-28T03:31:32.323Z,98748.00
2022-10-28T03:34:00.110Z,98746.00
2022-10-28T03:36:27.932Z,98741.00
2022-10-28T03:38:55.669Z,98742.00
2022-10-28T03:41:24.899Z,98734.00
2022-10-28T03:43:53.936Z,98743.00
2022-10-28T03:46:21.746Z,98736.00
2022-10-28T03:48:49.505Z,98740.00
2022-10-28T03:51:17.413Z,98741.00
2022-10-28T03:53:45.255Z,98735.00
2022-10-28T03:56:13.684Z,98733.00
2022-10-28T03:58:42.863Z,98725.00
2022-10-28T04:01:10.832Z,98720.00
2022-10-28T04:03:38.667Z,98725.00
2022-10-28T04:06:07.060Z,98732.00
2022-10-28T04:08:35.028Z,98737.00
2022-10-28T04:11:02.817Z,98731.00
2022-10-28T04:13:30.703Z,98729.00
2022-10-28T04:16:01.887Z,98740.00
2022-10-28T04:18:29.659Z,98732.00
2022-10-28T04:20:57.411Z,98735.00
2022-10-28T04:23:25.223Z,98736.00
2022-10-28T04:25:54.438Z,98737.00
2022-10-28T04:28:24.109Z,98741.00
2022-10-28T04:30:52.076Z,98742.00
2022-10-28T04:33:21.209Z,98743.00
2022-10-28T04:35:48.979Z,98740.00
2022-10-28T04:38:16.853Z,98740.00
2022-10-28T04:40:44.721Z,98732.00
2022-10-28T04:43:12.470Z,98732.00
2022-10-28T04:45:40.264Z,98744.00
2022-10-28T04:48:10.009Z,98742.00
2022-10-28T04:50:39.125Z,98737.00
2022-10-28T04:53:06.847Z,98737.00
2022-10-28T04:55:34.622Z,98741.00
2022-10-28T04:58:02.817Z,98738.00
2022-10-28T05:00:31.860Z,98749.00
2022-10-28T05:03:03.300Z,98752.00
2022-10-28T05:05:31.615Z,98758.00
2022-10-28T05:08:00.930Z,98763.00
2022-10-28T05:10:28.903Z,98755.00
2022-10-28T05:12:56.658Z,98766.00
2022-10-28T05:15:26.460Z,98774.00
2022-10-28T05:17:54.887Z,98759.00
2022-10-28T05:20:23.123Z,98755.00
2022-10-28T05:22:53.742Z,98768.00
2022-10-28T05:25:24.340Z,98770.00
2022-10-28T05:27:52.312Z,98769.00
2022-10-28T05:30:20.371Z,98756.00
2022-10-28T05:32:50.385Z,98743.00
2022-10-28T05:35:20.729Z,98740.00
2022-10-28T05:37:48.467Z,98741.00
2022-10-28T05:40:16.393Z,98750.00
2022-10-28T05:42:45.509Z,98753.00
2022-10-28T05:45:14.006Z,98751.00
2022-10-28T05:47:45.006Z,98758.00
2022-10-28T05:50:14.688Z,98758.00
2022-10-28T05:52:47.464Z,98763.00
2022-10-28T05:55:16.453Z,98758.00
2022-10-28T05:57:45.567Z,98764.00
2022-10-28T06:00:15.597Z,98771.00
2022-10-28T06:02:43.820Z,98761.00
2022-10-28T06:05:12.908Z,98765.00
2022-10-28T06:07:41.777Z,98762.00
2022-10-28T06:10:11.702Z,98763.00
2022-10-28T06:12:38.443Z,98760.00
2022-10-28T06:15:08.922Z,98761.00
2022-10-28T06:17:36.718Z,98781.00
2022-10-28T06:20:06.045Z,98778.00
2022-10-28T06:22:33.812Z,98780.00
2022-10-28T06:25:01.601Z,98781.00
2022-10-28T06:27:29.363Z,98782.00
2022-10-28T06:29:57.167Z,98788.00
2022-10-28T06:32:26.246Z,98779.00
2022-10-28T06:34:54.292Z,98776.00
2022-10-28T06:37:22.035Z,98782.00
2022-10-28T06:39:51.350Z,98794.00
2022-10-28T06:42:20.382Z,98797.00
2022-10-28T06:44:49.238Z,98792.00
2022-10-28T06:47:18.685Z,98796.00
2022-10-28T06:49:47.787Z,98803.00
2022-10-28T06:52:15.711Z,98811.00
2022-10-28T06:54:44.161Z,98817.00
2022-10-28T06:57:12.147Z,98824.00
2022-10-28T06:59:39.891Z,98830.00
2022-10-28T07:02:07.751Z,98833.00
2022-10-28T07:04:35.618Z,98838.00
2022-10-28T07:07:04.774Z,98848.00
2022-10-28T07:09:33.578Z,98853.00
2022-10-28T07:12:04.893Z,98854.00
2022-10-28T07:14:34.689Z,98849.00
2022-10-28T07:17:02.560Z,98843.00
2022-10-28T07:19:30.402Z,98836.00
2022-10-28T07:21:58.188Z,98797.00
2022-10-28T07:27:00.499Z,98710.00
2022-10-28T07:29:28.263Z,98737.00
2022-10-28T07:31:56.837Z,98759.00
2022-10-28T07:34:27.091Z,98748.00
2022-10-28T07:36:56.703Z,98733.00
2022-10-28T07:39:25.004Z,98753.00
2022-10-28T07:41:54.243Z,98762.00
2022-10-28T07:44:22.188Z,98772.00
2022-10-28T07:46:53.051Z,98787.00
2022-10-28T07:49:23.586Z,98799.00
2022-10-28T07:51:52.154Z,98804.00
2022-10-28T07:54:19.999Z,98811.00
2022-10-28T07:56:47.790Z,98801.00
2022-10-28T07:59:17.213Z,98786.00
2022-10-28T08:01:45.175Z,98798.00
2022-10-28T08:04:13.053Z,98795.00
2022-10-28T08:06:40.949Z,98787.00
2022-10-28T08:09:08.741Z,98796.00
2022-10-28T08:11:36.699Z,98794.00
2022-10-28T08:14:04.586Z,98783.00
2022-10-28T08:16:33.713Z,98781.00
2022-10-28T08:19:06.700Z,98785.00
2022-10-28T08:21:35.527Z,98791.00
2022-10-28T08:24:03.298Z,98787.00
2022-10-28T08:26:31.195Z,98798.00
2022-10-28T08:29:01.421Z,98783.00
2022-10-28T08:31:29.202Z,98796.00
2022-10-28T08:33:58.312Z,98791.00
2022-10-28T08:36:26.447Z,98781.00
2022-10-28T08:38:54.191Z,98778.00
2022-10-28T08:41:33.453Z,98776.00
2022-10-28T08:44:35.658Z,98765.00
2022-10-28T08:47:17.420Z,98772.00
2022-10-28T08:49:53.514Z,98779.00
2022-10-28T08:52:30.926Z,98774.00
2022-10-28T08:55:05.588Z,98773.00
2022-10-28T08:57:40.168Z,98765.00
2022-10-28T09:00:17.897Z,98769.00
2022-10-28T09:03:12.709Z,98775.00
2022-10-28T09:05:44.508Z,98765.00
2022-10-28T09:08:23.437Z,98761.00
2022-10-28T09:11:26.280Z,98757.00
2022-10-28T09:14:11.922Z,98763.00
2022-10-28T09:16:48.487Z,98755.00
2022-10-28T09:19:32.615Z,98766.00
2022-10-28T09:22:23.319Z,98768.00
2022-10-28T09:24:57.511Z,98758.00
2022-10-28T09:27:45.049Z,98762.00
2022-10-28T09:30:32.882Z,98755.00
2022-10-28T09:33:19.758Z,98769.00
2022-10-28T09:35:49.720Z,98759.00
2022-10-28T09:38:28.110Z,98752.00
2022-10-28T09:41:02.944Z,98746.00
2022-10-28T09:43:35.185Z,98754.00
2022-10-28T09:46:09.151Z,98747.00
2022-10-28T09:48:42.115Z,98747.00
2022-10-28T09:51:28.406Z,98753.00
2022-10-28T09:54:00.722Z,98741.00
2022-10-28T09:56:31.476Z,98746.00
2022-10-28T09:59:02.685Z,98746.00
2022-10-28T10:01:35.002Z,98753.00
2022-10-28T10:04:07.225Z,98752.00
2022-10-28T10:06:39.854Z,98752.00
2022-10-28T10:09:19.077Z,98755.00
2022-10-28T10:11:50.458Z,98756.00
2022-10-28T10:14:23.466Z,98753.00
2022-10-28T10:16:56.212Z,98749.00
2022-10-28T10:19:24.396Z,98754.00
2022-10-28T10:21:55.354Z,98757.00
2022-10-28T10:24:29.799Z,98759.00
2022-10-28T10:26:59.208Z,98759.00
2022-10-28T10:29:27.362Z,98763.00
2022-10-28T10:32:17.709Z,98761.00
2022-10-28T10:34:57.934Z,98767.00
2022-10-28T10:37:26.025Z,98770.00
2022-10-28T10:40:18.612Z,98776.00
2022-10-28T10:42:57.647Z,98770.00
2022-10-28T10:45:34.863Z,98763.00
2022-10-28T10:48:14.985Z,98765.00
2022-10-28T10:50:47.548Z,98759.00
2022-10-28T10:53:23.602Z,98744.00
2022-10-28T10:55:57.044Z,98732.00
2022-10-28T10:58:29.144Z,98728.00
2022-10-28T11:01:00.969Z,98716.00
2022-10-28T11:03:34.679Z,98716.00
2022-10-28T11:06:22.714Z,98706.00
2022-10-28T11:08:58.707Z,98722.00
2022-10-28T11:11:36.829Z,98706.00
2022-10-28T11:14:08.535Z,98708.00
2022-10-28T11:16:50.007Z,98707.00
2022-10-28T11:19:23.047Z,98713.00
2022-10-28T11:22:18.157Z,98708.00
2022-10-28T11:25:20.467Z,98706.00
2022-10-28T11:28:04.415Z,98704.00
2022-10-28T11:30:48.172Z,98693.00
2022-10-28T11:33:35.607Z,98693.00
2022-10-28T11:36:19.412Z,98683.00
2022-10-28T11:39:07.879Z,98682.00
2022-10-28T11:41:53.118Z,98675.00
2022-10-28T11:44:37.203Z,98676.00
2022-10-28T11:47:33.237Z,98668.00
2022-10-28T11:50:36.355Z,98665.00
2022-10-28T11:53:37.153Z,98667.00
2022-10-28T11:56:19.715Z,98665.00
2022-10-28T11:59:06.293Z,98663.00
2022-10-28T12:01:50.343Z,98661.00
2022-10-28T12:04:43.258Z,98662.00
2022-10-28T12:07:55.593Z,98662.00
2022-10-28T12:10:57.997Z,98664.00
2022-10-28T12:13:39.080Z,98657.00
2022-10-28T12:16:18.792Z,98653.00
2022-10-28T12:18:54.680Z,98656.00
2022-10-28T12:24:07.419Z,98657.00
2022-10-28T12:26:42.028Z,98672.00
2022-10-28T12:29:18.879Z,98669.00
2022-10-28T12:31:51.750Z,98666.00
2022-10-28T12:34:30.825Z,98655.00
2022-10-28T12:37:05.146Z,98655.00
2022-10-28T12:39:39.397Z,98650.00
2022-10-28T12:42:15.558Z,98651.00
2022-10-28T12:44:47.718Z,98656.00
2022-10-28T12:47:29.018Z,98642.00
2022-10-28T12:50:10.455Z,98632.00
2022-10-28T12:52:49.662Z,98634.00
2022-10-28T12:55:28.180Z,98630.00
2022-10-28T12:58:05.671Z,98626.00
2022-10-28T13:00:42.051Z,98636.00
2022-10-28T13:03:14.920Z,98639.00
2022-10-28T13:05:52.768Z,98629.00
2022-10-28T13:09:02.018Z,98624.00
2022-10-28T13:12:04.941Z,98625.00
2022-10-28T13:15:20.699Z,98624.00
2022-10-28T13:18:13.583Z,98627.00
2022-10-28T13:20:53.432Z,98633.00
2022-10-28T13:23:40.528Z,98628.00
2022-10-28T13:26:23.536Z,98626.00
2022-10-28T13:28:55.158Z,98631.00
2022-10-28T13:31:23.411Z,98630.00
2022-10-28T13:34:00.273Z,98642.00
2022-10-28T13:36:35.399Z,98632.00
2022-10-28T13:39:08.536Z,98627.00
2022-10-28T13:41:42.103Z,98626.00
2022-10-28T13:44:47.367Z,98627.00
2022-10-28T13:47:28.990Z,98635.00
2022-10-28T13:50:23.312Z,98632.00
2022-10-28T13:53:38.450Z,98645.00
2022-10-28T13:56:51.665Z,98634.00
2022-10-28T13:59:31.841Z,98643.00
2022-10-28T14:02:33.149Z,98647.00
2022-10-28T14:05:02.557Z,98638.00
2022-10-28T14:07:34.738Z,98643.00
2022-10-28T14:10:24.593Z,98649.00
2022-10-28T14:12:57.219Z,98644.00
2022-10-28T14:15:32.266Z,98646.00
2022-10-28T14:18:16.110Z,98637.00
2022-10-28T14:21:01.444Z,98626.00
2022-10-28T14:24:31.649Z,98640.00
2022-10-28T14:27:30.445Z,98643.00
2022-10-28T14:30:24.706Z,98644.00
2022-10-28T14:33:21.107Z,98637.00
2022-10-28T14:35:58.857Z,98637.00
2022-10-28T14:39:16.883Z,98633.00
2022-10-28T14:42:15.404Z,98633.00
2022-10-28T14:45:08.239Z,98627.00
2022-10-28T14:48:36.869Z,98628.00
2022-10-28T14:51:09.364Z,98640.00
2022-10-28T14:53:38.348Z,98628.00
2022-10-28T14:56:11.957Z,98623.00
2022-10-28T14:58:43.255Z,98626.00
2022-10-28T15:01:24.872Z,98622.00
2022-10-28T15:03:57.685Z,98620.00
2022-10-28T15:06:31.058Z,98620.00
2022-10-28T15:09:20.305Z,98626.00
2022-10-28T15:11:52.799Z,98636.00
2022-10-28T15:14:35.030Z,98638.00
2022-10-28T15:17:14.645Z,98635.00
2022-10-28T15:19:43.666Z,98632.00
2022-10-28T15:22:21.827Z,98639.00
2022-10-28T15:25:02.399Z,98639.00
2022-10-28T15:27:33.079Z,98634.00
2022-10-28T15:30:01.393Z,98628.00
2022-10-28T15:32:36.027Z,98624.00
2022-10-28T15:35:41.104Z,98630.00
2022-10-28T15:38:35.864Z,98636.00
2022-10-28T15:41:03.921Z,98631.00
2022-10-28T15:43:32.635Z,98631.00
2022-10-28T15:46:12.538Z,98629.00
2022-10-28T15:48:43.393Z,98633.00
2022-10-28T15:51:16.390Z,98629.00
2022-10-28T15:53:44.995Z,98628.00
2022-10-28T15:56:24.855Z,98628.00
2022-10-28T15:59:21.194Z,98636.00
2022-10-28T16:01:49.140Z,98633.00
2022-10-28T16:04:45.506Z,98629.00
2022-10-28T16:07:13.821Z,98627.00
2022-10-28T16:09:48.138Z,98627.00
2022-10-28T16:12:19.709Z,98632.00
2022-10-28T16:14:50.673Z,98634.00
2022-10-28T16:17:23.179Z,98634.00
2022-10-28T16:19:55.562Z,98638.00
2022-10-28T16:22:26.683Z,98638.00
2022-10-28T16:24:55.994Z,98639.00
2022-10-28T16:27:26.309Z,98644.00
2022-10-28T16:29:54.339Z,98641.00
2022-10-28T16:32:28.739Z,98649.00
2022-10-28T16:34:59.632Z,98638.00
2022-10-28T16:37:29.238Z,98636.00
2022-10-28T16:39:57.998Z,98635.00
2022-10-28T16:42:26.190Z,98635.00
2022-10-28T16:44:54.227Z,98633.00
2022-10-28T16:47:26.586Z,98643.00
2022-10-28T16:49:57.531Z,98647.00
2022-10-28T16:52:30.627Z,98650.00
2022-10-28T16:54:59.765Z,98652.00
2022-10-28T16:57:28.494Z,98638.00
2022-10-28T16:59:56.373Z,98642.00
2022-10-28T17:02:29.445Z,98652.00
2022-10-28T17:04:58.038Z,98649.00
2022-10-28T17:07:28.240Z,98652.00
2022-10-28T17:09:56.814Z,98646.00
2022-10-28T17:12:28.261Z,98648.00
2022-10-28T17:14:56.161Z,98642.00
2022-10-28T17:17:23.941Z,98644.00
2022-10-28T17:19:51.691Z,98644.00
2022-10-28T17:22:19.518Z,98644.00
2022-10-28T17:24:48.619Z,98641.00
2022-10-28T17:27:16.497Z,98627.00
2022-10-28T17:29:44.310Z,98628.00
2022-10-28T17:32:12.149Z,98624.00
2022-10-28T17:34:39.904Z,98627.00
2022-10-28T17:37:07.820Z,98626.00
2022-10-28T17:39:35.709Z,98622.00
2022-10-28T17:42:05.445Z,98628.00
2022-10-28T17:44:33.239Z,98631.00
2022-10-28T17:47:01.127Z,98624.00
2022-10-28T17:49:29.289Z,98635.00
2022-10-28T17:51:57.082Z,98635.00
2022-10-28T17:54:25.022Z,98632.00
2022-10-28T17:56:52.817Z,98621.00
2022-10-28T17:59:21.905Z,98628.00
2022-10-28T18:01:49.845Z,98625.00
2022-10-28T18:04:17.727Z,98625.00
2022-10-28T18:06:45.461Z,98626.00
2022-10-28T18:09:14.321Z,98629.00
2022-10-28T18:11:42.081Z,98623.00
2022-10-28T18:14:09.943Z,98626.00
2022-10-28T18:16:39.150Z,98627.00
2022-10-28T18:19:08.528Z,98621.00
2022-10-28T18:21:36.515Z,98629.00
2022-10-28T18:24:04.955Z,98636.00
2022-10-28T18:26:34.055Z,98643.00
2022-10-28T18:29:03.871Z,98643.00
2022-10-28T18:31:33.904Z,98648.00
2022-10-28T18:34:04.859Z,98649.00
2022-10-28T18:36:35.634Z,98645.00
2022-10-28T18:39:05.514Z,98656.00
2022-10-28T18:41:36.026Z,98656.00
2022-10-28T18:44:06.622Z,98652.00
2022-10-28T18:46:37.527Z,98661.00
2022-10-28T18:49:06.970Z,98653.00
2022-10-28T18:51:35.543Z,98657.00
2022-10-28T18:54:03.800Z,98650.00
2022-10-28T18:56:34.085Z,98649.00
2022-10-28T18:59:04.995Z,98651.00
2022-10-28T19:01:33.542Z,98644.00
2022-10-28T19:04:04.170Z,98649.00
2022-10-28T19:06:34.878Z,98647.00
2022-10-28T19:09:07.854Z,98644.00
2022-10-28T19:11:35.888Z,98644.00
2022-10-28T19:14:08.309Z,98644.00
2022-10-28T19:16:36.690Z,98640.00
2022-10-28T19:19:06.984Z,98639.00
2022-10-28T19:21:36.373Z,98635.00
2022-10-28T19:24:05.279Z,98641.00
2022-10-28T19:26:33.669Z,98645.00
2022-10-28T19:29:01.403Z,98650.00
2022-10-28T19:31:30.762Z,98642.00
2022-10-28T19:33:58.598Z,98644.00
2022-10-28T19:36:30.121Z,98648.00
2022-10-28T19:38:59.754Z,98650.00
2022-10-28T19:41:30.459Z,98640.00
2022-10-28T19:44:00.508Z,98643.00
2022-10-28T19:46:29.864Z,98650.00
2022-10-28T19:49:00.367Z,98645.00
2022-10-28T19:51:30.999Z,98646.00
2022-10-28T19:54:02.649Z,98649.00
2022-10-28T19:56:32.405Z,98645.00
2022-10-28T19:59:02.829Z,98649.00
2022-10-28T20:01:34.020Z,98648.00
2022-10-28T20:04:02.235Z,98644.00
2022-10-28T20:06:34.397Z,98640.00
2022-10-28T20:09:04.415Z,98643.00
2022-10-28T20:11:35.500Z,98656.00
2022-10-28T20:14:08.377Z,98661.00
2022-10-28T20:16:36.767Z,98653.00
2022-10-28T20:19:04.519Z,98651.00
2022-10-28T20:21:34.641Z,98651.00
2022-10-28T20:24:07.443Z,98664.00
2022-10-28T20:26:38.245Z,98661.00
2022-10-28T20:29:08.691Z,98658.00
2022-10-28T20:31:38.812Z,98660.00
2022-10-28T20:34:07.191Z,98661.00
2022-10-28T20:36:38.117Z,98672.00
2022-10-28T20:39:09.043Z,98671.00
2022-10-28T20:41:39.215Z,98664.00
2022-10-28T20:44:08.249Z,98661.00
2022-10-28T20:46:36.777Z,98664.00
2022-10-28T20:49:05.667Z,98660.00
2022-10-28T20:51:34.578Z,98669.00
2022-10-28T20:54:02.945Z,98660.00
2022-10-28T20:56:36.115Z,98670.00
2022-10-28T20:59:04.579Z,98667.00
2022-10-28T21:01:35.744Z,98670.00
2022-10-28T21:04:07.887Z,98665.00
2022-10-28T21:06:36.790Z,98664.00
2022-10-28T21:09:05.970Z,98672.00
2022-10-28T21:11:35.512Z,98667.00
2022-10-28T21:14:03.593Z,98675.00
2022-10-28T21:16:32.173Z,98660.00
2022-10-28T21:19:00.456Z,98669.00
2022-10-28T21:21:29.190Z,98670.00
2022-10-28T21:23:57.150Z,98669.00
2022-10-28T21:26:26.592Z,98674.00
2022-10-28T21:28:56.443Z,98675.00
2022-10-28T21:31:24.588Z,98672.00
2022-10-28T21:33:53.009Z,98667.00
2022-10-28T21:36:22.608Z,98669.00
2022-10-28T21:38:55.536Z,98666.00
2022-10-28T21:41:25.367Z,98665.00
2022-10-28T21:43:55.306Z,98656.00
2022-10-28T21:46:24.547Z,98660.00
2022-10-28T21:48:53.527Z,98656.00
2022-10-28T21:51:21.496Z,98657.00
2022-10-28T21:53:49.245Z,98658.00
2022-10-28T21:56:19.971Z,98673.00
2022-10-28T21:58:50.324Z,98682.00
2022-10-28T22:01:22.763Z,98685.00
2022-10-28T22:03:52.114Z,98690.00
2022-10-28T22:06:20.005Z,98698.00
2022-10-28T22:08:47.879Z,98701.00
2022-10-28T22:11:18.412Z,98700.00
2022-10-28T22:13:46.872Z,98707.00
2022-10-28T22:16:19.505Z,98710.00
2022-10-28T22:18:47.751Z,98709.00
2022-10-28T22:21:19.001Z,98714.00
2022-10-28T22:23:47.131Z,98718.00
2022-10-28T22:26:18.424Z,98718.00
2022-10-28T22:28:47.140Z,98719.00
2022-10-28T22:31:17.847Z,98711.00
2022-10-28T22:36:23.727Z,98719.00
2022-10-28T22:38:52.574Z,98717.00
2022-10-28T22:41:22.721Z,98714.00
2022-10-28T22:43:52.765Z,98702.00
2022-10-28T22:46:21.735Z,98706.00
2022-10-28T22:48:51.278Z,98710.00
2022-10-28T22:51:19.946Z,98707.00
2022-10-28T22:53:48.416Z,98716.00
2022-10-28T22:56:21.127Z,98714.00
2022-10-28T22:58:49.789Z,98714.00
2022-10-28T23:01:20.257Z,98711.00
2022-10-28T23:03:51.520Z,98709.00
2022-10-28T23:06:21.694Z,98712.00
2022-10-28T23:08:50.173Z,98711.00
2022-10-28T23:11:20.898Z,98715.00
2022-10-28T23:13:53.278Z,98726.00
2022-10-28T23:16:23.054Z,98727.00
2022-10-28T23:18:53.619Z,98723.00
2022-10-28T23:21:24.593Z,98727.00
2022-10-28T23:23:55.199Z,98730.00
2022-10-28T23:26:24.193Z,98726.00
2022-10-28T23:28:53.631Z,98729.00
2022-10-28T23:31:22.789Z,98726.00
2022-10-28T23:33:53.546Z,98725.00
2022-10-28T23:36:21.661Z,98722.00
2022-10-28T23:38:49.498Z,98725.00
2022-10-28T23:41:20.808Z,98725.00
2022-10-28T23:43:49.683Z,98733.00
2022-10-28T23:46:18.649Z,98743.00
2022-10-28T23:48:46.505Z,98724.00
2022-10-28T23:51:15.781Z,98713.00
2022-10-28T23:53:43.492Z,98713.00
2022-10-28T23:56:11.295Z,98712.00
2022-10-28T23:58:39.067Z,98715.00
